Time,TemperatureF,DewpointF,PressureIn,WindDirection,WindDirectionDegrees,WindSpeedMPH,WindSpeedGustMPH,Humidity,HourlyPrecipIn,Conditions,Clouds,dailyrainin,SoftwareType,DateUTC
2013-07-31 00:01:00,66.0,60.4,30.07,West,270,0.0,0.0,82,0.00,,,0.00,meteohub,2013-07-31 04:01:00,
2013-07-31 00:02:00,66.0,60.4,30.07,West,270,0.0,0.0,82,0.00,,,0.00,meteohub,2013-07-31 04:02:00,
2013-07-31 00:04:00,66.0,60.6,30.07,West,270,0.0,0.0,83,0.00,,,0.00,meteohub,2013-07-31 04:04:00,
2013-07-31 00:09:00,65.8,60.6,30.07,West,270,0.0,0.0,83,0.00,,,0.00,meteohub,2013-07-31 04:09:00,
2013-07-31 00:10:00,65.8,60.6,30.07,West,270,0.0,0.0,83,0.00,,,0.00,meteohub,2013-07-31 04:10:00,
2013-07-31 00:15:00,65.8,60.6,30.07,West,270,0.0,0.0,83,0.00,,,0.00,meteohub,2013-07-31 04:15:00,
2013-07-31 00:20:00,65.8,60.6,30.07,West,270,0.0,0.0,83,0.00,,,0.00,meteohub,2013-07-31 04:20:00,
2013-07-31 00:25:00,65.8,60.6,30.07,West,270,0.0,0.0,83,0.00,,,0.00,meteohub,2013-07-31 04:25:00,
2013-07-31 00:30:00,65.7,60.6,30.06,West,270,0.0,0.0,84,0.00,,,0.00,meteohub,2013-07-31 04:30:00,
2013-07-31 00:35:00,65.5,60.4,30.07,West,270,0.0,0.0,84,0.00,,,0.00,meteohub,2013-07-31 04:35:00,
2013-07-31 00:41:00,65.3,60.3,30.06,West,270,0.0,0.0,84,0.00,,,0.00,meteohub,2013-07-31 04:41:00,
2013-07-31 00:46:00,65.3,60.6,30.06,West,270,0.0,0.0,85,0.00,,,0.00,meteohub,2013-07-31 04:46:00,
2013-07-31 00:51:00,65.1,60.4,30.06,West,270,0.0,0.0,85,0.00,,,0.00,meteohub,2013-07-31 04:51:00,
2013-07-31 00:57:00,65.1,60.4,30.06,West,270,0.0,0.0,85,0.00,,,0.00,meteohub,2013-07-31 04:57:00,
2013-07-31 01:02:00,64.9,60.3,30.06,West,270,0.0,0.0,85,0.00,,,0.00,meteohub,2013-07-31 05:02:00,
2013-07-31 01:07:00,64.9,60.6,30.06,West,270,0.0,0.0,86,0.00,,,0.00,meteohub,2013-07-31 05:07:00,
2013-07-31 01:12:00,64.8,60.4,30.05,West,270,0.0,0.0,86,0.00,,,0.00,meteohub,2013-07-31 05:12:00,
2013-07-31 01:17:00,64.6,60.3,30.06,West,270,0.0,0.0,86,0.00,,,0.00,meteohub,2013-07-31 05:17:00,
2013-07-31 01:22:00,64.6,60.3,30.06,West,270,0.0,0.0,86,0.00,,,0.00,meteohub,2013-07-31 05:22:00,
2013-07-31 01:27:00,64.6,60.3,30.06,West,270,0.0,0.0,86,0.00,,,0.00,meteohub,2013-07-31 05:27:00,
2013-07-31 01:32:00,64.4,60.1,30.06,West,270,0.0,0.0,86,0.00,,,0.00,meteohub,2013-07-31 05:32:00,
2013-07-31 01:37:00,64.2,59.9,30.06,West,270,0.0,0.0,86,0.00,,,0.00,meteohub,2013-07-31 05:37:00,
2013-07-31 01:43:00,64.2,60.3,30.06,West,270,0.0,0.0,87,0.00,,,0.00,meteohub,2013-07-31 05:43:00,
2013-07-31 01:48:00,64.2,60.6,30.06,West,270,0.0,0.0,88,0.00,,,0.00,meteohub,2013-07-31 05:48:00,
2013-07-31 01:53:00,64.0,60.4,30.06,West,270,0.0,0.0,88,0.00,,,0.00,meteohub,2013-07-31 05:53:00,
2013-07-31 01:58:00,64.0,60.4,30.06,West,270,0.0,0.0,88,0.00,,,0.00,meteohub,2013-07-31 05:58:00,
2013-07-31 02:03:00,63.9,60.3,30.06,West,270,0.0,0.0,88,0.00,,,0.00,meteohub,2013-07-31 06:03:00,
2013-07-31 02:08:00,63.9,60.3,30.06,West,270,0.0,0.0,88,0.00,,,0.00,meteohub,2013-07-31 06:08:00,
2013-07-31 02:14:00,63.7,60.1,30.06,West,270,0.0,0.0,88,0.00,,,0.00,meteohub,2013-07-31 06:14:00,
2013-07-31 02:19:00,63.5,59.9,30.06,West,270,0.0,0.0,88,0.00,,,0.00,meteohub,2013-07-31 06:19:00,
2013-07-31 02:24:00,63.5,59.9,30.06,West,270,0.0,0.0,88,0.00,,,0.00,meteohub,2013-07-31 06:24:00,
2013-07-31 02:29:00,63.5,59.9,30.06,West,270,0.0,0.0,88,0.00,,,0.00,meteohub,2013-07-31 06:29:00,
2013-07-31 02:34:00,63.3,59.7,30.06,West,270,0.0,0.0,88,0.00,,,0.00,meteohub,2013-07-31 06:34:00,
2013-07-31 02:39:00,63.3,59.7,30.06,West,270,0.0,0.0,88,0.00,,,0.00,meteohub,2013-07-31 06:39:00,
2013-07-31 02:44:00,63.1,59.5,30.06,West,270,0.0,0.0,88,0.00,,,0.00,meteohub,2013-07-31 06:44:00,
2013-07-31 02:49:00,63.1,59.5,30.06,West,270,0.0,0.0,88,0.00,,,0.00,meteohub,2013-07-31 06:49:00,
2013-07-31 02:54:00,63.1,59.9,30.06,West,270,0.0,0.0,89,0.00,,,0.00,meteohub,2013-07-31 06:54:00,
2013-07-31 02:59:00,63.1,59.9,30.06,West,270,0.0,0.0,89,0.00,,,0.00,meteohub,2013-07-31 06:59:00,
2013-07-31 03:05:00,63.1,59.9,30.06,West,270,0.0,0.0,89,0.00,,,0.00,meteohub,2013-07-31 07:05:00,
2013-07-31 03:10:00,63.1,59.9,30.06,West,270,0.0,0.0,89,0.00,,,0.00,meteohub,2013-07-31 07:10:00,
2013-07-31 03:15:00,63.1,59.9,30.06,West,270,0.0,0.0,89,0.00,,,0.00,meteohub,2013-07-31 07:15:00,
2013-07-31 03:20:00,63.1,59.9,30.06,West,270,0.0,0.0,89,0.00,,,0.00,meteohub,2013-07-31 07:20:00,
2013-07-31 03:25:00,63.0,59.7,30.06,West,270,0.0,0.0,89,0.00,,,0.00,meteohub,2013-07-31 07:25:00,
2013-07-31 03:30:00,63.0,59.7,30.06,West,270,0.0,0.0,89,0.00,,,0.00,meteohub,2013-07-31 07:30:00,
2013-07-31 03:36:00,62.8,59.5,30.06,West,270,0.0,0.0,89,0.00,,,0.00,meteohub,2013-07-31 07:36:00,
2013-07-31 03:41:00,62.8,59.5,30.06,West,270,0.0,0.0,89,0.00,,,0.00,meteohub,2013-07-31 07:41:00,
2013-07-31 03:47:00,62.6,59.5,30.07,West,270,0.0,0.0,90,0.00,,,0.00,meteohub,2013-07-31 07:47:00,
2013-07-31 03:52:00,62.6,59.5,30.06,West,270,0.0,0.0,90,0.00,,,0.00,meteohub,2013-07-31 07:52:00,
2013-07-31 03:57:00,62.4,59.7,30.07,West,270,0.0,0.0,91,0.00,,,0.00,meteohub,2013-07-31 07:57:00,
2013-07-31 04:02:00,62.4,59.7,30.07,West,270,0.0,0.0,91,0.00,,,0.00,meteohub,2013-07-31 08:02:00,
2013-07-31 04:07:00,62.2,59.5,30.07,West,270,0.0,0.0,91,0.00,,,0.00,meteohub,2013-07-31 08:07:00,
2013-07-31 04:12:00,62.2,59.5,30.07,West,270,0.0,0.0,91,0.00,,,0.00,meteohub,2013-07-31 08:12:00,
2013-07-31 04:17:00,62.1,59.7,30.07,West,270,0.0,0.0,92,0.00,,,0.00,meteohub,2013-07-31 08:17:00,
2013-07-31 04:22:00,62.1,59.7,30.07,West,270,0.0,0.0,92,0.00,,,0.00,meteohub,2013-07-31 08:22:00,
2013-07-31 04:27:00,62.1,59.7,30.07,West,270,0.0,0.0,92,0.00,,,0.00,meteohub,2013-07-31 08:27:00,
2013-07-31 04:32:00,62.1,59.7,30.07,West,270,0.0,0.0,92,0.00,,,0.00,meteohub,2013-07-31 08:32:00,
2013-07-31 04:37:00,61.9,59.5,30.07,West,270,0.0,0.0,92,0.00,,,0.00,meteohub,2013-07-31 08:37:00,
2013-07-31 04:42:00,61.9,59.5,30.07,West,270,0.0,0.0,92,0.00,,,0.00,meteohub,2013-07-31 08:42:00,
2013-07-31 04:47:00,61.7,59.4,30.07,West,270,0.0,0.0,92,0.00,,,0.00,meteohub,2013-07-31 08:47:00,
2013-07-31 04:53:00,61.7,59.4,30.08,West,270,0.0,0.0,92,0.00,,,0.00,meteohub,2013-07-31 08:53:00,
2013-07-31 04:58:00,61.7,59.4,30.08,West,270,0.0,0.0,92,0.00,,,0.00,meteohub,2013-07-31 08:58:00,
2013-07-31 05:03:00,61.5,59.2,30.08,West,270,0.0,0.0,92,0.00,,,0.00,meteohub,2013-07-31 09:03:00,
2013-07-31 05:08:00,61.5,59.2,30.08,West,270,0.0,0.0,92,0.00,,,0.00,meteohub,2013-07-31 09:08:00,
2013-07-31 05:13:00,61.5,59.2,30.09,West,270,0.0,0.0,92,0.00,,,0.00,meteohub,2013-07-31 09:13:00,
2013-07-31 05:19:00,61.5,59.2,30.09,West,270,0.0,0.0,92,0.00,,,0.00,meteohub,2013-07-31 09:19:00,
2013-07-31 05:24:00,61.3,59.4,30.09,West,270,0.0,0.0,93,0.00,,,0.00,meteohub,2013-07-31 09:24:00,
2013-07-31 05:29:00,61.3,59.4,30.09,West,270,0.0,0.0,93,0.00,,,0.00,meteohub,2013-07-31 09:29:00,
2013-07-31 05:34:00,61.3,59.4,30.09,West,270,0.0,0.0,93,0.00,,,0.00,meteohub,2013-07-31 09:34:00,
2013-07-31 05:39:00,61.2,59.2,30.09,West,270,0.0,0.0,93,0.00,,,0.00,meteohub,2013-07-31 09:39:00,
2013-07-31 05:45:00,61.2,59.2,30.09,West,270,0.0,0.0,93,0.00,,,0.00,meteohub,2013-07-31 09:45:00,
2013-07-31 05:50:00,61.2,59.2,30.09,West,270,0.0,0.0,93,0.00,,,0.00,meteohub,2013-07-31 09:50:00,
2013-07-31 05:55:00,61.2,59.2,30.09,West,270,0.0,0.0,93,0.00,,,0.00,meteohub,2013-07-31 09:55:00,
2013-07-31 06:00:00,61.3,59.4,30.10,West,270,0.0,0.0,93,0.00,,,0.00,meteohub,2013-07-31 10:00:00,
2013-07-31 06:05:00,61.3,59.4,30.10,West,270,0.0,0.0,93,0.00,,,0.00,meteohub,2013-07-31 10:05:00,
2013-07-31 06:11:00,61.5,59.5,30.10,West,270,0.0,0.0,93,0.00,,,0.00,meteohub,2013-07-31 10:11:00,
2013-07-31 06:16:00,61.5,59.5,30.10,West,270,0.0,0.0,93,0.00,,,0.00,meteohub,2013-07-31 10:16:00,
2013-07-31 06:21:00,61.7,59.7,30.10,West,270,0.0,0.0,93,0.00,,,0.00,meteohub,2013-07-31 10:21:00,
2013-07-31 06:27:00,61.9,59.9,30.10,West,270,0.0,0.0,93,0.00,,,0.00,meteohub,2013-07-31 10:27:00,
2013-07-31 06:32:00,62.1,60.1,30.11,West,270,0.0,0.0,93,0.00,,,0.00,meteohub,2013-07-31 10:32:00,
2013-07-31 06:37:00,62.2,60.3,30.10,West,270,0.0,0.0,93,0.00,,,0.00,meteohub,2013-07-31 10:37:00,
2013-07-31 06:42:00,62.6,60.3,30.11,West,270,0.0,0.0,92,0.00,,,0.00,meteohub,2013-07-31 10:42:00,
2013-07-31 06:47:00,62.8,60.4,30.11,West,270,0.0,0.0,92,0.00,,,0.00,meteohub,2013-07-31 10:47:00,
2013-07-31 06:52:00,63.0,60.6,30.11,West,270,0.0,0.0,92,0.00,,,0.00,meteohub,2013-07-31 10:52:00,
2013-07-31 06:57:00,63.3,61.0,30.12,West,270,0.0,0.0,92,0.00,,,0.00,meteohub,2013-07-31 10:57:00,
2013-07-31 07:02:00,63.7,61.3,30.11,West,270,0.0,0.0,92,0.00,,,0.00,meteohub,2013-07-31 11:02:00,
2013-07-31 07:07:00,63.9,61.5,30.11,West,270,0.0,0.0,92,0.00,,,0.00,meteohub,2013-07-31 11:07:00,
2013-07-31 07:12:00,64.4,62.4,30.11,West,270,0.0,0.0,93,0.00,,,0.00,meteohub,2013-07-31 11:12:00,
2013-07-31 07:17:00,64.8,62.4,30.12,West,270,0.0,0.0,92,0.00,,,0.00,meteohub,2013-07-31 11:17:00,
2013-07-31 07:22:00,65.3,63.0,30.12,North,0,0.0,1.0,92,0.00,,,0.00,meteohub,2013-07-31 11:22:00,
2013-07-31 07:27:00,66.0,63.7,30.12,South,180,0.0,1.0,92,0.00,,,0.00,meteohub,2013-07-31 11:27:00,
2013-07-31 07:32:00,66.6,63.1,30.12,NW,315,0.0,1.0,89,0.00,,,0.00,meteohub,2013-07-31 11:32:00,
2013-07-31 07:37:00,67.5,63.5,30.12,NW,315,0.0,2.0,87,0.00,,,0.00,meteohub,2013-07-31 11:37:00,
2013-07-31 07:42:00,68.0,63.0,30.12,West,270,2.0,2.0,84,0.00,,,0.00,meteohub,2013-07-31 11:42:00,
2013-07-31 07:48:00,68.5,62.8,30.12,NW,315,0.0,2.0,82,0.00,,,0.00,meteohub,2013-07-31 11:48:00,
2013-07-31 07:53:00,69.4,63.3,30.11,South,180,3.0,3.0,81,0.00,,,0.00,meteohub,2013-07-31 11:53:00,
2013-07-31 07:58:00,70.2,61.5,30.12,NW,315,0.0,3.0,74,0.00,,,0.00,meteohub,2013-07-31 11:58:00,
2013-07-31 08:03:00,70.9,61.9,30.11,East,90,1.0,3.0,73,0.00,,,0.00,meteohub,2013-07-31 12:03:00,
2013-07-31 08:08:00,71.4,61.5,30.12,NE,45,3.0,3.0,71,0.00,,,0.00,meteohub,2013-07-31 12:08:00,
2013-07-31 08:13:00,71.4,59.5,30.12,SE,135,4.0,4.0,66,0.00,,,0.00,meteohub,2013-07-31 12:13:00,
2013-07-31 08:18:00,71.4,59.9,30.11,East,90,0.0,4.0,67,0.00,,,0.00,meteohub,2013-07-31 12:18:00,
2013-07-31 08:23:00,71.6,60.4,30.11,ENE,68,4.0,4.0,68,0.00,,,0.00,meteohub,2013-07-31 12:23:00,
2013-07-31 08:28:00,72.1,59.7,30.11,NW,315,0.0,4.0,65,0.00,,,0.00,meteohub,2013-07-31 12:28:00,
2013-07-31 08:34:00,72.3,59.9,30.12,SE,135,2.0,4.0,65,0.00,,,0.00,meteohub,2013-07-31 12:34:00,
2013-07-31 08:39:00,72.7,60.3,30.12,NW,315,2.0,4.0,65,0.00,,,0.00,meteohub,2013-07-31 12:39:00,
2013-07-31 08:44:00,72.7,59.7,30.12,North,0,0.0,2.0,64,0.00,,,0.00,meteohub,2013-07-31 12:44:00,
2013-07-31 08:49:00,72.5,58.8,30.12,East,90,4.0,4.0,62,0.00,,,0.00,meteohub,2013-07-31 12:49:00,
2013-07-31 08:54:00,72.7,58.8,30.12,South,180,2.0,4.0,62,0.00,,,0.00,meteohub,2013-07-31 12:54:00,
2013-07-31 08:59:00,72.9,59.0,30.12,SE,135,4.0,4.0,62,0.00,,,0.00,meteohub,2013-07-31 12:59:00,
2013-07-31 09:04:00,73.0,59.2,30.12,SE,135,2.0,4.0,62,0.00,,,0.00,meteohub,2013-07-31 13:04:00,
2013-07-31 09:10:00,73.4,60.1,30.11,North,0,0.0,4.0,63,0.00,,,0.00,meteohub,2013-07-31 13:10:00,
2013-07-31 09:15:00,73.4,58.6,30.12,NW,315,1.0,4.0,60,0.00,,,0.00,meteohub,2013-07-31 13:15:00,
2013-07-31 09:20:00,73.9,58.6,30.12,South,180,3.0,3.0,59,0.00,,,0.00,meteohub,2013-07-31 13:20:00,
2013-07-31 09:25:00,74.1,57.9,30.12,East,90,0.0,4.0,57,0.00,,,0.00,meteohub,2013-07-31 13:25:00,
2013-07-31 09:30:00,74.3,57.6,30.11,NW,315,2.0,4.0,56,0.00,,,0.00,meteohub,2013-07-31 13:30:00,
2013-07-31 09:35:00,74.5,58.3,30.11,SE,135,1.0,4.0,57,0.00,,,0.00,meteohub,2013-07-31 13:35:00,
2013-07-31 09:41:00,75.0,59.2,30.11,SE,135,2.0,4.0,58,0.00,,,0.00,meteohub,2013-07-31 13:41:00,
2013-07-31 09:46:00,75.2,57.9,30.11,East,90,2.0,3.0,55,0.00,,,0.00,meteohub,2013-07-31 13:46:00,
2013-07-31 09:51:00,75.2,58.5,30.10,North,0,1.0,3.0,56,0.00,,,0.00,meteohub,2013-07-31 13:51:00,
2013-07-31 09:56:00,75.2,56.8,30.10,NW,315,2.0,3.0,53,0.00,,,0.00,meteohub,2013-07-31 13:56:00,
2013-07-31 10:01:00,75.7,57.4,30.11,SE,135,2.0,3.0,53,0.00,,,0.00,meteohub,2013-07-31 14:01:00,
2013-07-31 10:06:00,76.3,57.4,30.10,SE,135,2.0,3.0,52,0.00,,,0.00,meteohub,2013-07-31 14:06:00,
2013-07-31 10:11:00,76.5,58.6,30.10,South,180,0.0,3.0,54,0.00,,,0.00,meteohub,2013-07-31 14:11:00,
2013-07-31 10:17:00,77.0,57.0,30.10,SSE,158,2.0,2.0,50,0.00,,,0.00,meteohub,2013-07-31 14:17:00,
2013-07-31 10:22:00,77.2,57.7,30.10,SE,135,2.0,3.0,51,0.00,,,0.00,meteohub,2013-07-31 14:22:00,
2013-07-31 10:27:00,77.4,57.7,30.10,North,0,3.0,3.0,51,0.00,,,0.00,meteohub,2013-07-31 14:27:00,
2013-07-31 10:32:00,77.5,55.0,30.10,SE,135,3.0,3.0,46,0.00,,,0.00,meteohub,2013-07-31 14:32:00,
2013-07-31 10:37:00,78.1,55.0,30.09,SE,135,2.0,3.0,45,0.00,,,0.00,meteohub,2013-07-31 14:37:00,
2013-07-31 10:42:00,79.2,56.7,30.09,North,0,1.0,3.0,46,0.00,,,0.00,meteohub,2013-07-31 14:42:00,
2013-07-31 10:47:00,79.9,57.2,30.09,West,270,0.0,3.0,46,0.00,,,0.00,meteohub,2013-07-31 14:47:00,
2013-07-31 10:52:00,80.8,58.6,30.09,East,90,1.0,3.0,47,0.00,,,0.00,meteohub,2013-07-31 14:52:00,
2013-07-31 10:57:00,82.6,59.0,30.09,North,0,2.0,3.0,45,0.00,,,0.00,meteohub,2013-07-31 14:57:00,
2013-07-31 11:02:00,82.2,56.8,30.09,West,270,2.0,2.0,42,0.00,,,0.00,meteohub,2013-07-31 15:02:00,
2013-07-31 11:07:00,81.7,57.0,30.09,West,270,2.0,2.0,43,0.00,,,0.00,meteohub,2013-07-31 15:07:00,
2013-07-31 11:13:00,81.5,57.6,30.08,North,0,2.0,2.0,44,0.00,,,0.00,meteohub,2013-07-31 15:13:00,
2013-07-31 11:18:00,82.6,58.5,30.09,East,90,2.0,2.0,44,0.00,,,0.00,meteohub,2013-07-31 15:18:00,
2013-07-31 11:23:00,84.0,59.7,30.09,North,0,1.0,2.0,44,0.00,,,0.00,meteohub,2013-07-31 15:23:00,
2013-07-31 11:28:00,84.9,58.6,30.08,SE,135,2.0,2.0,41,0.00,,,0.00,meteohub,2013-07-31 15:28:00,
2013-07-31 11:33:00,85.3,57.6,30.08,West,270,0.0,2.0,39,0.00,,,0.00,meteohub,2013-07-31 15:33:00,
2013-07-31 11:39:00,86.0,58.8,30.08,NW,315,0.0,2.0,40,0.00,,,0.00,meteohub,2013-07-31 15:39:00,
2013-07-31 11:44:00,86.2,59.0,30.09,North,0,0.0,2.0,40,0.00,,,0.00,meteohub,2013-07-31 15:44:00,
2013-07-31 11:49:00,86.4,57.7,30.08,SE,135,0.0,2.0,38,0.00,,,0.00,meteohub,2013-07-31 15:49:00,
2013-07-31 11:54:00,86.5,55.6,30.08,East,90,1.0,2.0,35,0.00,,,0.00,meteohub,2013-07-31 15:54:00,
2013-07-31 11:59:00,86.0,55.9,30.08,West,270,2.0,2.0,36,0.00,,,0.00,meteohub,2013-07-31 15:59:00,
2013-07-31 12:04:00,84.0,58.5,30.08,North,0,0.0,2.0,42,0.00,,,0.00,meteohub,2013-07-31 16:04:00,
2013-07-31 12:10:00,82.2,56.8,30.08,North,0,0.0,2.0,42,0.00,,,0.00,meteohub,2013-07-31 16:10:00,
2013-07-31 12:15:00,81.7,58.3,30.08,North,0,0.0,2.0,45,0.00,,,0.00,meteohub,2013-07-31 16:15:00,
2013-07-31 12:20:00,82.8,58.6,30.07,SE,135,0.0,0.0,44,0.00,,,0.00,meteohub,2013-07-31 16:20:00,
2013-07-31 12:26:00,83.5,59.9,30.08,North,0,0.0,1.0,45,0.00,,,0.00,meteohub,2013-07-31 16:26:00,
2013-07-31 12:31:00,84.0,59.7,30.07,South,180,1.0,1.0,44,0.00,,,0.00,meteohub,2013-07-31 16:31:00,
2013-07-31 12:36:00,83.8,59.0,30.07,NW,315,1.0,2.0,43,0.00,,,0.00,meteohub,2013-07-31 16:36:00,
2013-07-31 12:41:00,83.3,59.2,30.07,North,0,1.0,2.0,44,0.00,,,0.00,meteohub,2013-07-31 16:41:00,
2013-07-31 12:46:00,82.8,58.6,30.07,West,270,0.0,2.0,44,0.00,,,0.00,meteohub,2013-07-31 16:46:00,
2013-07-31 12:52:00,82.6,58.5,30.07,NW,315,2.0,2.0,44,0.00,,,0.00,meteohub,2013-07-31 16:52:00,
2013-07-31 12:57:00,82.6,57.7,30.06,NW,315,2.0,2.0,43,0.00,,,0.00,meteohub,2013-07-31 16:57:00,
2013-07-31 13:02:00,82.0,57.9,30.06,NW,315,0.0,2.0,44,0.00,,,0.00,meteohub,2013-07-31 17:02:00,
2013-07-31 13:07:00,81.7,56.3,30.06,West,270,2.0,3.0,42,0.00,,,0.00,meteohub,2013-07-31 17:07:00,
2013-07-31 13:12:00,81.5,55.6,30.06,East,90,0.0,3.0,41,0.00,,,0.00,meteohub,2013-07-31 17:12:00,
2013-07-31 13:17:00,81.1,57.7,30.06,North,0,3.0,3.0,45,0.00,,,0.00,meteohub,2013-07-31 17:17:00,
2013-07-31 13:22:00,81.0,57.0,30.06,North,0,0.0,3.0,44,0.00,,,0.00,meteohub,2013-07-31 17:22:00,
2013-07-31 13:28:00,80.8,56.8,30.06,North,0,0.0,3.0,44,0.00,,,0.00,meteohub,2013-07-31 17:28:00,
2013-07-31 13:33:00,80.6,56.1,30.07,East,90,3.0,3.0,43,0.00,,,0.00,meteohub,2013-07-31 17:33:00,
2013-07-31 13:38:00,81.0,55.8,30.06,West,270,2.0,3.0,42,0.00,,,0.00,meteohub,2013-07-31 17:38:00,
2013-07-31 13:43:00,81.3,56.7,30.06,West,270,0.0,3.0,43,0.00,,,0.00,meteohub,2013-07-31 17:43:00,
2013-07-31 13:48:00,81.3,57.4,30.06,WNW,293,1.0,3.0,44,0.00,,,0.00,meteohub,2013-07-31 17:48:00,
2013-07-31 13:54:00,81.3,57.4,30.06,NW,315,1.0,2.0,44,0.00,,,0.00,meteohub,2013-07-31 17:54:00,
2013-07-31 13:59:00,81.1,57.7,30.06,NW,315,0.0,2.0,45,0.00,,,0.00,meteohub,2013-07-31 17:59:00,
2013-07-31 14:04:00,80.6,57.4,30.06,SE,135,1.0,2.0,45,0.00,,,0.00,meteohub,2013-07-31 18:04:00,
2013-07-31 14:09:00,80.2,57.6,30.06,North,0,0.0,2.0,46,0.00,,,0.00,meteohub,2013-07-31 18:09:00,
2013-07-31 14:14:00,79.7,57.0,30.06,North,0,0.0,2.0,46,0.00,,,0.00,meteohub,2013-07-31 18:14:00,
2013-07-31 14:20:00,79.3,57.9,30.06,West,270,0.0,2.0,48,0.00,,,0.00,meteohub,2013-07-31 18:20:00,
2013-07-31 14:25:00,79.5,58.1,30.06,West,270,0.0,1.0,48,0.00,,,0.00,meteohub,2013-07-31 18:25:00,
2013-07-31 14:30:00,79.5,56.8,30.06,WNW,293,2.0,3.0,46,0.00,,,0.00,meteohub,2013-07-31 18:30:00,
2013-07-31 14:35:00,79.5,57.6,30.05,WNW,293,2.0,3.0,47,0.00,,,0.00,meteohub,2013-07-31 18:35:00,
2013-07-31 14:40:00,79.2,58.3,30.06,West,270,0.0,3.0,49,0.00,,,0.00,meteohub,2013-07-31 18:40:00,
2013-07-31 14:46:00,79.2,58.3,30.06,North,0,1.0,2.0,49,0.00,,,0.00,meteohub,2013-07-31 18:46:00,
2013-07-31 14:51:00,79.3,57.9,30.06,NW,315,0.0,2.0,48,0.00,,,0.00,meteohub,2013-07-31 18:51:00,
2013-07-31 14:56:00,79.7,57.7,30.05,NW,315,0.0,2.0,47,0.00,,,0.00,meteohub,2013-07-31 18:56:00,
2013-07-31 15:01:00,80.1,58.1,30.06,North,0,0.0,2.0,47,0.00,,,0.00,meteohub,2013-07-31 19:01:00,
2013-07-31 15:06:00,80.4,58.3,30.05,North,0,0.0,1.0,47,0.00,,,0.00,meteohub,2013-07-31 19:06:00,
2013-07-31 15:11:00,80.8,57.4,30.05,North,0,0.0,1.0,45,0.00,,,0.00,meteohub,2013-07-31 19:11:00,
2013-07-31 15:16:00,80.8,58.6,30.05,NW,315,1.0,1.0,47,0.00,,,0.00,meteohub,2013-07-31 19:16:00,
2013-07-31 15:21:00,80.6,57.4,30.05,East,90,0.0,2.0,45,0.00,,,0.00,meteohub,2013-07-31 19:21:00,
2013-07-31 15:27:00,80.6,58.5,30.04,East,90,0.0,2.0,47,0.00,,,0.00,meteohub,2013-07-31 19:27:00,
2013-07-31 15:32:00,80.4,59.0,30.05,North,0,1.0,1.0,48,0.00,,,0.00,meteohub,2013-07-31 19:32:00,
2013-07-31 15:37:00,80.4,57.7,30.05,NE,45,0.0,1.0,46,0.00,,,0.00,meteohub,2013-07-31 19:37:00,
2013-07-31 15:42:00,80.1,58.1,30.04,NE,45,0.0,1.0,47,0.00,,,0.00,meteohub,2013-07-31 19:42:00,
2013-07-31 15:47:00,79.7,58.3,30.04,NE,45,0.0,1.0,48,0.00,,,0.00,meteohub,2013-07-31 19:47:00,
2013-07-31 15:52:00,79.3,58.5,30.04,NW,315,0.0,1.0,49,0.00,,,0.00,meteohub,2013-07-31 19:52:00,
2013-07-31 15:57:00,79.5,58.1,30.04,East,90,0.0,2.0,48,0.00,,,0.00,meteohub,2013-07-31 19:57:00,
2013-07-31 16:02:00,79.7,57.7,30.04,North,0,0.0,2.0,47,0.00,,,0.00,meteohub,2013-07-31 20:02:00,
2013-07-31 16:07:00,79.7,57.7,30.04,North,0,0.0,2.0,47,0.00,,,0.00,meteohub,2013-07-31 20:07:00,
2013-07-31 16:12:00,80.1,58.1,30.04,North,0,1.0,2.0,47,0.00,,,0.00,meteohub,2013-07-31 20:12:00,
2013-07-31 16:18:00,80.1,57.4,30.04,West,270,0.0,2.0,46,0.00,,,0.00,meteohub,2013-07-31 20:18:00,
2013-07-31 16:23:00,80.1,57.4,30.03,East,90,0.0,2.0,46,0.00,,,0.00,meteohub,2013-07-31 20:23:00,
2013-07-31 16:28:00,79.5,57.6,30.04,NE,45,0.0,2.0,47,0.00,,,0.00,meteohub,2013-07-31 20:28:00,
2013-07-31 16:33:00,79.5,56.8,30.04,NE,45,0.0,2.0,46,0.00,,,0.00,meteohub,2013-07-31 20:33:00,
2013-07-31 16:38:00,79.5,57.6,30.04,NE,45,0.0,1.0,47,0.00,,,0.00,meteohub,2013-07-31 20:38:00,
2013-07-31 16:43:00,79.7,58.3,30.04,NE,45,0.0,0.0,48,0.00,,,0.00,meteohub,2013-07-31 20:43:00,
2013-07-31 16:49:00,79.7,57.0,30.03,NE,45,0.0,0.0,46,0.00,,,0.00,meteohub,2013-07-31 20:49:00,
2013-07-31 16:54:00,79.7,58.3,30.04,NE,45,0.0,0.0,48,0.00,,,0.00,meteohub,2013-07-31 20:54:00,
2013-07-31 16:59:00,79.5,58.6,30.04,NE,45,0.0,0.0,49,0.00,,,0.00,meteohub,2013-07-31 20:59:00,
2013-07-31 17:04:00,79.5,58.6,30.04,NE,45,0.0,0.0,49,0.00,,,0.00,meteohub,2013-07-31 21:04:00,
2013-07-31 17:09:00,79.5,59.2,30.03,NW,315,0.0,0.0,50,0.00,,,0.00,meteohub,2013-07-31 21:09:00,
2013-07-31 17:14:00,79.3,59.7,30.03,North,0,0.0,0.0,51,0.00,,,0.00,meteohub,2013-07-31 21:14:00,
2013-07-31 17:19:00,79.3,59.7,30.03,North,0,0.0,0.0,51,0.00,,,0.00,meteohub,2013-07-31 21:19:00,
2013-07-31 17:24:00,79.3,57.9,30.03,West,270,0.0,0.0,48,0.00,,,0.00,meteohub,2013-07-31 21:24:00,
2013-07-31 17:30:00,79.3,58.5,30.03,West,270,0.0,0.0,49,0.00,,,0.00,meteohub,2013-07-31 21:30:00,
2013-07-31 17:35:00,79.2,59.5,30.03,West,270,0.0,0.0,51,0.00,,,0.00,meteohub,2013-07-31 21:35:00,
2013-07-31 17:40:00,79.2,61.2,30.03,West,270,1.0,0.0,54,0.00,,,0.00,meteohub,2013-07-31 21:40:00,
2013-07-31 17:45:00,79.0,58.8,30.03,East,90,0.0,0.0,50,0.00,,,0.00,meteohub,2013-07-31 21:45:00,
2013-07-31 17:50:00,79.2,58.3,30.03,East,90,2.0,2.0,49,0.00,,,0.00,meteohub,2013-07-31 21:50:00,
2013-07-31 17:55:00,79.0,59.9,30.03,West,270,0.0,2.0,52,0.00,,,0.00,meteohub,2013-07-31 21:55:00,
2013-07-31 18:00:00,78.6,59.5,30.04,West,270,0.0,2.0,52,0.00,,,0.00,meteohub,2013-07-31 22:00:00,
2013-07-31 18:06:00,78.6,59.0,30.03,West,270,0.0,2.0,51,0.00,,,0.00,meteohub,2013-07-31 22:06:00,
2013-07-31 18:11:00,78.4,60.4,30.04,West,270,0.0,1.0,54,0.00,,,0.00,meteohub,2013-07-31 22:11:00,
2013-07-31 18:16:00,78.3,61.7,30.03,NE,45,2.0,2.0,57,0.00,,,0.00,meteohub,2013-07-31 22:16:00,
2013-07-31 18:22:00,78.1,62.6,30.03,West,270,2.0,2.0,59,0.00,,,0.00,meteohub,2013-07-31 22:22:00,
2013-07-31 18:27:00,77.9,63.0,30.03,NW,315,0.0,4.0,60,0.00,,,0.00,meteohub,2013-07-31 22:27:00,
2013-07-31 18:32:00,77.7,62.8,30.03,North,-999,-999.0,4.0,60,0.00,,,0.00,meteohub,2013-07-31 22:32:00,
2013-07-31 18:37:00,77.5,62.6,30.04,North,-999,-999.0,4.0,60,0.00,,,0.00,meteohub,2013-07-31 22:37:00,
2013-07-31 18:42:00,77.2,62.2,30.03,North,-999,-999.0,0.0,60,0.00,,,0.00,meteohub,2013-07-31 22:42:00,
2013-07-31 18:47:00,77.0,62.6,30.04,NW,315,3.0,-999.0,61,0.00,,,0.00,meteohub,2013-07-31 22:47:00,
2013-07-31 18:52:00,76.8,62.8,30.04,NE,45,2.0,3.0,62,0.00,,,0.00,meteohub,2013-07-31 22:52:00,
2013-07-31 18:57:00,76.8,63.3,30.04,NE,45,0.0,3.0,63,0.00,,,0.00,meteohub,2013-07-31 22:57:00,
2013-07-31 19:03:00,76.6,63.1,30.03,West,270,0.0,3.0,63,0.00,,,0.00,meteohub,2013-07-31 23:03:00,
2013-07-31 19:08:00,76.5,63.3,30.03,North,-999,-999.0,2.0,64,0.00,,,0.00,meteohub,2013-07-31 23:08:00,
2013-07-31 19:13:00,76.3,63.7,30.03,West,270,0.0,2.0,65,0.00,,,0.00,meteohub,2013-07-31 23:13:00,
2013-07-31 19:18:00,75.9,63.7,30.03,West,270,0.0,1.0,66,0.00,,,0.00,meteohub,2013-07-31 23:18:00,
2013-07-31 19:23:00,75.7,63.5,30.03,West,270,0.0,2.0,66,0.00,,,0.00,meteohub,2013-07-31 23:23:00,
2013-07-31 19:28:00,75.4,63.7,30.03,West,270,0.0,2.0,67,0.00,,,0.00,meteohub,2013-07-31 23:28:00,
2013-07-31 19:34:00,75.0,64.2,30.03,West,270,0.0,2.0,69,0.00,,,0.00,meteohub,2013-07-31 23:34:00,
2013-07-31 19:39:00,74.7,64.2,30.03,West,270,0.0,0.0,70,0.00,,,0.00,meteohub,2013-07-31 23:39:00,
2013-07-31 19:44:00,74.5,64.4,30.03,North,-999,-999.0,0.0,71,0.00,,,0.00,meteohub,2013-07-31 23:44:00,
2013-07-31 19:49:00,74.1,64.6,30.02,North,-999,-999.0,0.0,72,0.00,,,0.00,meteohub,2013-07-31 23:49:00,
2013-07-31 19:54:00,73.8,64.2,30.02,West,270,0.0,0.0,72,0.00,,,0.00,meteohub,2013-07-31 23:54:00,
2013-07-31 20:00:00,73.4,64.2,30.02,West,270,0.0,-999.0,73,0.00,,,0.00,meteohub,2013-08-01 00:00:00,
2013-07-31 20:05:00,73.0,63.5,30.02,West,270,0.0,0.0,72,0.00,,,0.00,meteohub,2013-08-01 00:05:00,
2013-07-31 20:10:00,72.9,63.7,30.02,West,270,0.0,0.0,73,0.00,,,0.00,meteohub,2013-08-01 00:10:00,
2013-07-31 20:15:00,72.7,63.5,30.02,West,270,0.0,0.0,73,0.00,,,0.00,meteohub,2013-08-01 00:15:00,
2013-07-31 20:21:00,72.5,63.3,30.02,West,270,0.0,0.0,73,0.00,,,0.00,meteohub,2013-08-01 00:21:00,
2013-07-31 20:26:00,72.1,63.3,30.03,West,270,0.0,0.0,74,0.00,,,0.00,meteohub,2013-08-01 00:26:00,
2013-07-31 20:31:00,72.0,63.7,30.02,West,270,0.0,0.0,75,0.00,,,0.00,meteohub,2013-08-01 00:31:00,
2013-07-31 20:36:00,71.8,63.5,30.03,West,270,0.0,0.0,75,0.00,,,0.00,meteohub,2013-08-01 00:36:00,
2013-07-31 20:41:00,71.6,63.7,30.02,West,270,0.0,0.0,76,0.00,,,0.00,meteohub,2013-08-01 00:41:00,
2013-07-31 20:46:00,71.4,63.9,30.02,West,270,0.0,1.0,77,0.00,,,0.00,meteohub,2013-08-01 00:46:00,
2013-07-31 20:52:00,71.2,63.7,30.02,West,270,0.0,1.0,77,0.00,,,0.00,meteohub,2013-08-01 00:52:00,
2013-07-31 20:57:00,71.2,64.0,30.03,West,270,0.0,1.0,78,0.00,,,0.00,meteohub,2013-08-01 00:57:00,
2013-07-31 21:02:00,71.1,63.9,30.03,West,270,0.0,0.0,78,0.00,,,0.00,meteohub,2013-08-01 01:02:00,
2013-07-31 21:07:00,70.9,64.0,30.03,West,270,0.0,0.0,79,0.00,,,0.00,meteohub,2013-08-01 01:07:00,
2013-07-31 21:12:00,70.9,64.0,30.03,West,270,0.0,0.0,79,0.00,,,0.00,meteohub,2013-08-01 01:12:00,
2013-07-31 21:17:00,70.9,64.0,30.03,West,270,1.0,0.0,79,0.00,,,0.00,meteohub,2013-08-01 01:17:00,
2013-07-31 21:22:00,70.9,64.0,30.03,West,270,0.0,2.0,79,0.00,,,0.00,meteohub,2013-08-01 01:22:00,
2013-07-31 21:28:00,70.7,63.9,30.03,West,270,0.0,2.0,79,0.00,,,0.00,meteohub,2013-08-01 01:28:00,
2013-07-31 21:33:00,70.7,63.9,30.04,West,270,0.0,2.0,79,0.00,,,0.00,meteohub,2013-08-01 01:33:00,
2013-07-31 21:38:00,70.5,64.0,30.03,West,270,0.0,2.0,80,0.00,,,0.00,meteohub,2013-08-01 01:38:00,
2013-07-31 21:43:00,70.5,64.0,30.03,West,270,0.0,1.0,80,0.00,,,0.00,meteohub,2013-08-01 01:43:00,
2013-07-31 21:48:00,70.3,63.9,30.03,West,270,1.0,1.0,80,0.00,,,0.00,meteohub,2013-08-01 01:48:00,
2013-07-31 21:53:00,70.3,63.9,30.03,West,270,2.0,2.0,80,0.00,,,0.00,meteohub,2013-08-01 01:53:00,
2013-07-31 21:58:00,70.3,63.9,30.03,West,270,1.0,2.0,80,0.00,,,0.00,meteohub,2013-08-01 01:58:00,
2013-07-31 22:03:00,70.3,64.2,30.03,West,270,2.0,2.0,81,0.00,,,0.00,meteohub,2013-08-01 02:03:00,
2013-07-31 22:09:00,70.3,64.2,30.04,West,270,1.0,2.0,81,0.00,,,0.00,meteohub,2013-08-01 02:09:00,
2013-07-31 22:14:00,70.2,64.0,30.04,West,270,2.0,2.0,81,0.00,,,0.00,meteohub,2013-08-01 02:14:00,
2013-07-31 22:19:00,70.2,64.0,30.04,West,270,0.0,2.0,81,0.00,,,0.00,meteohub,2013-08-01 02:19:00,
2013-07-31 22:24:00,70.0,63.9,30.04,West,270,0.0,2.0,81,0.00,,,0.00,meteohub,2013-08-01 02:24:00,
2013-07-31 22:29:00,69.8,64.0,30.03,West,270,0.0,2.0,82,0.00,,,0.00,meteohub,2013-08-01 02:29:00,
2013-07-31 22:34:00,69.8,64.0,30.03,West,270,0.0,1.0,82,0.00,,,0.00,meteohub,2013-08-01 02:34:00,
2013-07-31 22:40:00,69.6,64.2,30.04,West,270,0.0,2.0,83,0.00,,,0.00,meteohub,2013-08-01 02:40:00,
2013-07-31 22:45:00,69.4,64.4,30.04,West,270,0.0,2.0,84,0.00,,,0.00,meteohub,2013-08-01 02:45:00,
2013-07-31 22:50:00,69.3,64.2,30.03,West,270,0.0,2.0,84,0.00,,,0.00,meteohub,2013-08-01 02:50:00,
2013-07-31 22:55:00,69.1,64.0,30.04,West,270,0.0,0.0,84,0.00,,,0.00,meteohub,2013-08-01 02:55:00,
2013-07-31 23:00:00,68.9,64.2,30.03,West,270,0.0,0.0,85,0.00,,,0.00,meteohub,2013-08-01 03:00:00,
2013-07-31 23:05:00,68.7,64.0,30.03,West,270,0.0,0.0,85,0.00,,,0.00,meteohub,2013-08-01 03:05:00,
2013-07-31 23:10:00,68.7,64.4,30.03,West,270,0.0,0.0,86,0.00,,,0.00,meteohub,2013-08-01 03:10:00,
2013-07-31 23:16:00,68.5,64.2,30.03,West,270,0.0,0.0,86,0.00,,,0.00,meteohub,2013-08-01 03:16:00,
2013-07-31 23:21:00,68.5,64.2,30.04,West,270,0.0,0.0,86,0.00,,,0.00,meteohub,2013-08-01 03:21:00,
2013-07-31 23:26:00,68.4,64.4,30.03,West,270,0.0,0.0,87,0.00,,,0.00,meteohub,2013-08-01 03:26:00,
2013-07-31 23:31:00,68.2,64.2,30.03,West,270,0.0,1.0,87,0.00,,,0.00,meteohub,2013-08-01 03:31:00,
2013-07-31 23:37:00,68.2,64.2,30.04,West,270,0.0,2.0,87,0.00,,,0.00,meteohub,2013-08-01 03:37:00,
2013-07-31 23:42:00,68.0,64.0,30.03,West,270,0.0,2.0,87,0.00,,,0.00,meteohub,2013-08-01 03:42:00,
2013-07-31 23:47:00,67.8,64.2,30.03,West,270,2.0,0.0,88,0.00,,,0.00,meteohub,2013-08-01 03:47:00,
2013-07-31 23:52:00,67.8,64.4,30.03,NW,315,1.0,2.0,89,0.00,,,0.00,meteohub,2013-08-01 03:52:00,
2013-07-31 23:57:00,67.8,64.4,30.04,West,270,1.0,2.0,89,0.00,,,0.00,meteohub,2013-08-01 03:57:00,